sensor_id;sensor_type;location;lat;lon;timestamp;temperature;humidity
4209;DHT22;36320;48.860;2.380;2022-09-09T00:04:16;20.50;69.90
4209;DHT22;36320;48.860;2.380;2022-09-09T00:09:29;20.40;70.10
4209;DHT22;36320;48.860;2.380;2022-09-09T00:12:02;20.40;70.20
4209;DHT22;36320;48.860;2.380;2022-09-09T00:14:50;20.40;70.20
4209;DHT22;36320;48.860;2.380;2022-09-09T00:17:39;20.30;70.20
4209;DHT22;36320;48.860;2.380;2022-09-09T00:22:57;20.20;70.40
4209;DHT22;36320;48.860;2.380;2022-09-09T00:28:24;20.20;70.50
4209;DHT22;36320;48.860;2.380;2022-09-09T00:30:52;20.20;70.80
4209;DHT22;36320;48.860;2.380;2022-09-09T00:33:22;20.10;70.70
4209;DHT22;36320;48.860;2.380;2022-09-09T00:35:54;20.10;71.00
4209;DHT22;36320;48.860;2.380;2022-09-09T00:38:32;20.10;71.00
4209;DHT22;36320;48.860;2.380;2022-09-09T00:43:38;20.10;71.20
4209;DHT22;36320;48.860;2.380;2022-09-09T00:56:51;19.90;71.90
4209;DHT22;36320;48.860;2.380;2022-09-09T00:59:32;19.90;72.00
4209;DHT22;36320;48.860;2.380;2022-09-09T01:02:03;20.20;72.30
4209;DHT22;36320;48.860;2.380;2022-09-09T01:04:36;19.90;72.10
4209;DHT22;36320;48.860;2.380;2022-09-09T01:07:17;19.90;72.40
4209;DHT22;36320;48.860;2.380;2022-09-09T01:10:00;19.90;72.70
4209;DHT22;36320;48.860;2.380;2022-09-09T01:12:42;19.90;72.50
4209;DHT22;36320;48.860;2.380;2022-09-09T01:15:13;19.90;72.50
4209;DHT22;36320;48.860;2.380;2022-09-09T01:20:23;19.80;72.80
4209;DHT22;36320;48.860;2.380;2022-09-09T01:28:35;19.80;73.00
4209;DHT22;36320;48.860;2.380;2022-09-09T01:31:04;19.90;73.30
4209;DHT22;36320;48.860;2.380;2022-09-09T01:33:31;19.80;73.30
4209;DHT22;36320;48.860;2.380;2022-09-09T01:36:10;19.70;73.40
4209;DHT22;36320;48.860;2.380;2022-09-09T01:38:38;19.80;73.40
4209;DHT22;36320;48.860;2.380;2022-09-09T01:41:04;19.80;73.40
4209;DHT22;36320;48.860;2.380;2022-09-09T01:43:30;19.80;73.30
4209;DHT22;36320;48.860;2.380;2022-09-09T01:45:59;19.90;73.40
4209;DHT22;36320;48.860;2.380;2022-09-09T01:48:27;20.00;73.20
4209;DHT22;36320;48.860;2.380;2022-09-09T01:50:52;20.00;73.20
4209;DHT22;36320;48.860;2.380;2022-09-09T01:53:20;20.00;73.10
4209;DHT22;36320;48.860;2.380;2022-09-09T02:06:55;20.00;73.50
4209;DHT22;36320;48.860;2.380;2022-09-09T02:09:24;20.10;73.10
4209;DHT22;36320;48.860;2.380;2022-09-09T02:12:03;20.10;73.00
4209;DHT22;36320;48.860;2.380;2022-09-09T02:14:37;20.20;73.00
4209;DHT22;36320;48.860;2.380;2022-09-09T02:17:23;20.10;72.80
4209;DHT22;36320;48.860;2.380;2022-09-09T02:20:12;20.00;73.30
4209;DHT22;36320;48.860;2.380;2022-09-09T02:22:40;19.90;73.10
4209;DHT22;36320;48.860;2.380;2022-09-09T02:25:09;19.90;73.40
4209;DHT22;36320;48.860;2.380;2022-09-09T02:27:35;19.80;73.30
4209;DHT22;36320;48.860;2.380;2022-09-09T02:30:03;19.80;73.60
4209;DHT22;36320;48.860;2.380;2022-09-09T02:32:32;19.70;73.80
4209;DHT22;36320;48.860;2.380;2022-09-09T02:35:06;19.70;74.00
4209;DHT22;36320;48.860;2.380;2022-09-09T02:37:37;19.70;73.90
4209;DHT22;36320;48.860;2.380;2022-09-09T02:40:05;19.80;73.70
4209;DHT22;36320;48.860;2.380;2022-09-09T02:42:32;19.90;73.60
4209;DHT22;36320;48.860;2.380;2022-09-09T02:44:57;19.80;73.80
4209;DHT22;36320;48.860;2.380;2022-09-09T02:47:35;19.80;73.90
4209;DHT22;36320;48.860;2.380;2022-09-09T02:52:47;19.70;74.10
4209;DHT22;36320;48.860;2.380;2022-09-09T02:55:29;19.80;74.00
4209;DHT22;36320;48.860;2.380;2022-09-09T02:58:01;19.80;73.90
4209;DHT22;36320;48.860;2.380;2022-09-09T03:00:28;19.80;74.00
4209;DHT22;36320;48.860;2.380;2022-09-09T03:02:54;19.80;74.00
4209;DHT22;36320;48.860;2.380;2022-09-09T03:05:21;19.90;74.00
4209;DHT22;36320;48.860;2.380;2022-09-09T03:07:47;19.80;74.20
4209;DHT22;36320;48.860;2.380;2022-09-09T03:10:13;19.60;74.30
4209;DHT22;36320;48.860;2.380;2022-09-09T03:12:39;19.60;74.60
4209;DHT22;36320;48.860;2.380;2022-09-09T03:15:05;19.50;75.50
4209;DHT22;36320;48.860;2.380;2022-09-09T03:17:31;19.60;75.00
4209;DHT22;36320;48.860;2.380;2022-09-09T03:19:59;19.60;74.90
4209;DHT22;36320;48.860;2.380;2022-09-09T03:22:25;19.50;75.00
4209;DHT22;36320;48.860;2.380;2022-09-09T03:24:51;19.60;75.20
4209;DHT22;36320;48.860;2.380;2022-09-09T03:27:17;19.60;74.90
4209;DHT22;36320;48.860;2.380;2022-09-09T03:29:45;19.60;75.10
4209;DHT22;36320;48.860;2.380;2022-09-09T03:32:11;19.60;75.00
4209;DHT22;36320;48.860;2.380;2022-09-09T03:34:38;19.70;74.90
4209;DHT22;36320;48.860;2.380;2022-09-09T03:37:05;19.60;74.70
4209;DHT22;36320;48.860;2.380;2022-09-09T03:39:31;19.50;75.00
4209;DHT22;36320;48.860;2.380;2022-09-09T03:41:57;19.50;75.30
4209;DHT22;36320;48.860;2.380;2022-09-09T03:44:24;19.50;75.40
4209;DHT22;36320;48.860;2.380;2022-09-09T03:46:50;19.40;75.40
4209;DHT22;36320;48.860;2.380;2022-09-09T03:49:16;19.80;75.90
4209;DHT22;36320;48.860;2.380;2022-09-09T03:51:42;19.50;75.40
4209;DHT22;36320;48.860;2.380;2022-09-09T03:54:08;19.50;75.40
4209;DHT22;36320;48.860;2.380;2022-09-09T03:56:36;19.50;75.40
4209;DHT22;36320;48.860;2.380;2022-09-09T03:59:02;19.50;75.50
4209;DHT22;36320;48.860;2.380;2022-09-09T04:01:29;19.60;75.50
4209;DHT22;36320;48.860;2.380;2022-09-09T04:03:54;19.60;75.30
4209;DHT22;36320;48.860;2.380;2022-09-09T04:06:24;19.40;75.50
4209;DHT22;36320;48.860;2.380;2022-09-09T04:08:50;19.40;75.90
4209;DHT22;36320;48.860;2.380;2022-09-09T04:11:17;19.30;75.90
4209;DHT22;36320;48.860;2.380;2022-09-09T04:13:43;19.20;76.20
4209;DHT22;36320;48.860;2.380;2022-09-09T04:16:11;19.20;76.60
4209;DHT22;36320;48.860;2.380;2022-09-09T04:18:38;19.10;76.80
4209;DHT22;36320;48.860;2.380;2022-09-09T04:21:04;19.00;77.00
4209;DHT22;36320;48.860;2.380;2022-09-09T04:23:31;19.20;77.00
4209;DHT22;36320;48.860;2.380;2022-09-09T04:25:59;19.20;76.80
4209;DHT22;36320;48.860;2.380;2022-09-09T04:28:28;19.20;77.00
4209;DHT22;36320;48.860;2.380;2022-09-09T04:30:56;19.20;77.10
4209;DHT22;36320;48.860;2.380;2022-09-09T04:33:25;19.20;76.90
4209;DHT22;36320;48.860;2.380;2022-09-09T04:35:52;19.30;77.20
4209;DHT22;36320;48.860;2.380;2022-09-09T04:38:21;19.20;77.10
4209;DHT22;36320;48.860;2.380;2022-09-09T04:40:49;19.10;77.50
4209;DHT22;36320;48.860;2.380;2022-09-09T04:43:18;19.20;77.70
4209;DHT22;36320;48.860;2.380;2022-09-09T04:45:47;19.30;77.60
4209;DHT22;36320;48.860;2.380;2022-09-09T04:48:13;19.40;77.60
4209;DHT22;36320;48.860;2.380;2022-09-09T04:50:39;19.40;77.30
4209;DHT22;36320;48.860;2.380;2022-09-09T04:53:06;19.20;77.30
4209;DHT22;36320;48.860;2.380;2022-09-09T04:55:32;19.10;77.70
4209;DHT22;36320;48.860;2.380;2022-09-09T04:58:06;19.20;78.10
4209;DHT22;36320;48.860;2.380;2022-09-09T05:00:33;19.20;78.00
4209;DHT22;36320;48.860;2.380;2022-09-09T05:03:03;19.10;78.00
4209;DHT22;36320;48.860;2.380;2022-09-09T05:05:30;19.10;77.90
4209;DHT22;36320;48.860;2.380;2022-09-09T05:08:04;19.10;78.00
4209;DHT22;36320;48.860;2.380;2022-09-09T05:10:31;19.20;78.00
4209;DHT22;36320;48.860;2.380;2022-09-09T05:12:57;19.30;77.80
4209;DHT22;36320;48.860;2.380;2022-09-09T05:15:23;19.30;77.60
4209;DHT22;36320;48.860;2.380;2022-09-09T05:17:48;19.30;77.50
4209;DHT22;36320;48.860;2.380;2022-09-09T05:20:14;19.30;77.50
4209;DHT22;36320;48.860;2.380;2022-09-09T05:22:40;19.40;77.70
4209;DHT22;36320;48.860;2.380;2022-09-09T05:25:06;19.30;77.80
4209;DHT22;36320;48.860;2.380;2022-09-09T05:27:36;19.20;78.00
4209;DHT22;36320;48.860;2.380;2022-09-09T05:30:02;19.40;78.10
4209;DHT22;36320;48.860;2.380;2022-09-09T05:32:30;19.40;78.10
4209;DHT22;36320;48.860;2.380;2022-09-09T05:35:00;19.30;78.10
4209;DHT22;36320;48.860;2.380;2022-09-09T05:37:27;19.30;78.20
4209;DHT22;36320;48.860;2.380;2022-09-09T05:39:52;19.40;78.00
4209;DHT22;36320;48.860;2.380;2022-09-09T05:42:18;19.30;77.80
4209;DHT22;36320;48.860;2.380;2022-09-09T05:44:44;19.30;78.10
4209;DHT22;36320;48.860;2.380;2022-09-09T05:47:10;19.40;78.10
4209;DHT22;36320;48.860;2.380;2022-09-09T05:49:37;19.50;78.10
4209;DHT22;36320;48.860;2.380;2022-09-09T05:52:03;19.60;77.90
4209;DHT22;36320;48.860;2.380;2022-09-09T05:54:29;19.60;77.60
4209;DHT22;36320;48.860;2.380;2022-09-09T05:56:55;19.50;77.70
4209;DHT22;36320;48.860;2.380;2022-09-09T05:59:21;19.70;77.80
4209;DHT22;36320;48.860;2.380;2022-09-09T06:01:49;19.80;77.50
4209;DHT22;36320;48.860;2.380;2022-09-09T06:04:15;19.80;77.30
4209;DHT22;36320;48.860;2.380;2022-09-09T06:06:41;19.80;77.50
4209;DHT22;36320;48.860;2.380;2022-09-09T06:09:08;20.00;77.50
4209;DHT22;36320;48.860;2.380;2022-09-09T06:11:38;20.00;77.30
4209;DHT22;36320;48.860;2.380;2022-09-09T06:14:05;20.00;77.20
4209;DHT22;36320;48.860;2.380;2022-09-09T06:16:32;19.80;77.40
4209;DHT22;36320;48.860;2.380;2022-09-09T06:18:59;19.90;77.50
4209;DHT22;36320;48.860;2.380;2022-09-09T06:21:36;19.90;77.40
4209;DHT22;36320;48.860;2.380;2022-09-09T06:24:03;20.00;77.20
4209;DHT22;36320;48.860;2.380;2022-09-09T06:26:34;19.80;77.30
4209;DHT22;36320;48.860;2.380;2022-09-09T06:29:01;19.80;77.20
4209;DHT22;36320;48.860;2.380;2022-09-09T06:31:30;20.00;77.30
4209;DHT22;36320;48.860;2.380;2022-09-09T06:33:58;20.10;77.10
4209;DHT22;36320;48.860;2.380;2022-09-09T06:36:25;20.00;76.80
4209;DHT22;36320;48.860;2.380;2022-09-09T06:38:51;20.00;77.00
4209;DHT22;36320;48.860;2.380;2022-09-09T06:41:19;20.10;76.80
4209;DHT22;36320;48.860;2.380;2022-09-09T06:43:46;20.10;76.90
4209;DHT22;36320;48.860;2.380;2022-09-09T06:46:19;20.20;76.60
4209;DHT22;36320;48.860;2.380;2022-09-09T06:48:45;20.30;76.40
4209;DHT22;36320;48.860;2.380;2022-09-09T06:51:18;20.40;76.10
4209;DHT22;36320;48.860;2.380;2022-09-09T06:57:07;20.60;75.50
4209;DHT22;36320;48.860;2.380;2022-09-09T06:59:33;20.60;75.10
4209;DHT22;36320;48.860;2.380;2022-09-09T07:01:59;20.60;74.70
4209;DHT22;36320;48.860;2.380;2022-09-09T07:04:27;20.60;74.50
4209;DHT22;36320;48.860;2.380;2022-09-09T07:06:53;20.60;74.60
4209;DHT22;36320;48.860;2.380;2022-09-09T07:09:19;20.50;74.30
4209;DHT22;36320;48.860;2.380;2022-09-09T07:11:48;20.50;74.50
4209;DHT22;36320;48.860;2.380;2022-09-09T07:14:15;20.50;74.20
4209;DHT22;36320;48.860;2.380;2022-09-09T07:16:42;20.60;74.20
4209;DHT22;36320;48.860;2.380;2022-09-09T07:19:09;20.70;74.00
4209;DHT22;36320;48.860;2.380;2022-09-09T07:21:35;20.90;73.80
4209;DHT22;36320;48.860;2.380;2022-09-09T07:24:05;20.90;73.50
4209;DHT22;36320;48.860;2.380;2022-09-09T07:26:33;21.00;73.20
4209;DHT22;36320;48.860;2.380;2022-09-09T07:28:59;21.00;72.90
4209;DHT22;36320;48.860;2.380;2022-09-09T07:31:27;21.00;73.00
4209;DHT22;36320;48.860;2.380;2022-09-09T07:33:56;21.00;73.10
4209;DHT22;36320;48.860;2.380;2022-09-09T07:36:24;21.10;72.70
4209;DHT22;36320;48.860;2.380;2022-09-09T07:38:56;21.20;72.50
4209;DHT22;36320;48.860;2.380;2022-09-09T07:41:28;21.30;72.00
4209;DHT22;36320;48.860;2.380;2022-09-09T07:43:56;21.20;72.00
4209;DHT22;36320;48.860;2.380;2022-09-09T07:46:23;21.10;71.40
4209;DHT22;36320;48.860;2.380;2022-09-09T07:48:54;21.20;71.90
4209;DHT22;36320;48.860;2.380;2022-09-09T07:51:25;21.20;71.50
4209;DHT22;36320;48.860;2.380;2022-09-09T07:53:53;21.10;71.00
4209;DHT22;36320;48.860;2.380;2022-09-09T07:56:20;21.00;71.70
4209;DHT22;36320;48.860;2.380;2022-09-09T07:58:50;21.00;71.90
4209;DHT22;36320;48.860;2.380;2022-09-09T08:01:33;21.30;72.40
4209;DHT22;36320;48.860;2.380;2022-09-09T08:04:07;20.90;72.20
4209;DHT22;36320;48.860;2.380;2022-09-09T08:06:39;21.00;71.90
4209;DHT22;36320;48.860;2.380;2022-09-09T08:09:06;21.20;71.40
4209;DHT22;36320;48.860;2.380;2022-09-09T08:11:33;21.30;71.10
4209;DHT22;36320;48.860;2.380;2022-09-09T08:13:59;21.30;70.70
4209;DHT22;36320;48.860;2.380;2022-09-09T08:16:28;21.20;70.60
4209;DHT22;36320;48.860;2.380;2022-09-09T08:18:56;21.10;70.40
4209;DHT22;36320;48.860;2.380;2022-09-09T08:21:24;21.00;70.80
4209;DHT22;36320;48.860;2.380;2022-09-09T08:23:52;21.00;70.50
4209;DHT22;36320;48.860;2.380;2022-09-09T08:26:21;21.10;70.70
4209;DHT22;36320;48.860;2.380;2022-09-09T08:28:49;21.20;70.60
4209;DHT22;36320;48.860;2.380;2022-09-09T08:31:19;21.30;70.40
4209;DHT22;36320;48.860;2.380;2022-09-09T08:33:46;21.40;70.00
4209;DHT22;36320;48.860;2.380;2022-09-09T08:36:17;21.60;69.80
4209;DHT22;36320;48.860;2.380;2022-09-09T08:38:43;22.00;70.10
4209;DHT22;36320;48.860;2.380;2022-09-09T08:46:58;21.80;68.40
4209;DHT22;36320;48.860;2.380;2022-09-09T08:57:44;21.90;68.50
4209;DHT22;36320;48.860;2.380;2022-09-09T09:00:11;21.90;68.50
4209;DHT22;36320;48.860;2.380;2022-09-09T09:02:48;21.80;69.20
4209;DHT22;36320;48.860;2.380;2022-09-09T09:05:29;21.80;68.50
4209;DHT22;36320;48.860;2.380;2022-09-09T09:08:14;21.70;68.70
4209;DHT22;36320;48.860;2.380;2022-09-09T09:10:50;21.60;68.50
4209;DHT22;36320;48.860;2.380;2022-09-09T09:15:55;22.20;67.70
4209;DHT22;36320;48.860;2.380;2022-09-09T09:18:23;22.40;68.30
4209;DHT22;36320;48.860;2.380;2022-09-09T09:20:58;22.70;66.80
4209;DHT22;36320;48.860;2.380;2022-09-09T09:23:55;22.80;66.40
4209;DHT22;36320;48.860;2.380;2022-09-09T09:26:19;22.30;66.20
4209;DHT22;36320;48.860;2.380;2022-09-09T09:28:58;22.30;66.50
4209;DHT22;36320;48.860;2.380;2022-09-09T09:31:24;22.20;66.80
4209;DHT22;36320;48.860;2.380;2022-09-09T09:33:56;22.50;67.80
4209;DHT22;36320;48.860;2.380;2022-09-09T09:36:54;22.70;66.50
4209;DHT22;36320;48.860;2.380;2022-09-09T09:39:30;22.80;66.00
4209;DHT22;36320;48.860;2.380;2022-09-09T09:42:09;22.80;65.60
4209;DHT22;36320;48.860;2.380;2022-09-09T09:44:55;22.70;65.70
4209;DHT22;36320;48.860;2.380;2022-09-09T09:47:22;22.60;65.50
4209;DHT22;36320;48.860;2.380;2022-09-09T09:49:57;22.50;65.90
4209;DHT22;36320;48.860;2.380;2022-09-09T09:52:32;22.30;66.10
4209;DHT22;36320;48.860;2.380;2022-09-09T09:55:05;22.20;66.50
4209;DHT22;36320;48.860;2.380;2022-09-09T09:57:38;22.20;66.90
4209;DHT22;36320;48.860;2.380;2022-09-09T10:00:18;22.40;66.40
4209;DHT22;36320;48.860;2.380;2022-09-09T10:02:46;22.70;66.30
4209;DHT22;36320;48.860;2.380;2022-09-09T10:07:44;23.40;64.80
4209;DHT22;36320;48.860;2.380;2022-09-09T10:10:23;23.30;64.30
4209;DHT22;36320;48.860;2.380;2022-09-09T10:19:36;23.00;64.20
4209;DHT22;36320;48.860;2.380;2022-09-09T10:30:55;23.10;64.00
4209;DHT22;36320;48.860;2.380;2022-09-09T10:36:21;23.50;63.00
4209;DHT22;36320;48.860;2.380;2022-09-09T10:55:17;23.70;62.10
4209;DHT22;36320;48.860;2.380;2022-09-09T10:57:48;23.70;62.20
4209;DHT22;36320;48.860;2.380;2022-09-09T11:00:21;23.80;61.90
4209;DHT22;36320;48.860;2.380;2022-09-09T11:02:58;23.90;61.70
4209;DHT22;36320;48.860;2.380;2022-09-09T11:08:26;23.80;61.50
4209;DHT22;36320;48.860;2.380;2022-09-09T11:11:21;23.70;61.80
4209;DHT22;36320;48.860;2.380;2022-09-09T11:19:34;23.90;62.90
4209;DHT22;36320;48.860;2.380;2022-09-09T11:22:25;24.20;62.20
4209;DHT22;36320;48.860;2.380;2022-09-09T11:25:10;24.20;61.50
4209;DHT22;36320;48.860;2.380;2022-09-09T11:30:22;24.20;61.10
4209;DHT22;36320;48.860;2.380;2022-09-09T11:36:02;24.30;60.90
4209;DHT22;36320;48.860;2.380;2022-09-09T11:41:07;25.10;59.60
4209;DHT22;36320;48.860;2.380;2022-09-09T11:43:48;25.00;59.30
4209;DHT22;36320;48.860;2.380;2022-09-09T11:46:21;24.80;58.70
4209;DHT22;36320;48.860;2.380;2022-09-09T11:49:02;24.70;59.00
4209;DHT22;36320;48.860;2.380;2022-09-09T11:51:31;24.30;59.20
4209;DHT22;36320;48.860;2.380;2022-09-09T11:54:01;24.10;59.80
4209;DHT22;36320;48.860;2.380;2022-09-09T11:59:16;23.70;62.10
4209;DHT22;36320;48.860;2.380;2022-09-09T12:01:46;23.80;62.80
4209;DHT22;36320;48.860;2.380;2022-09-09T12:04:38;23.60;63.10
4209;DHT22;36320;48.860;2.380;2022-09-09T12:14:53;23.90;62.10
4209;DHT22;36320;48.860;2.380;2022-09-09T12:17:22;24.30;62.30
4209;DHT22;36320;48.860;2.380;2022-09-09T12:20:06;24.50;61.90
4209;DHT22;36320;48.860;2.380;2022-09-09T12:28:11;23.90;62.00
4209;DHT22;36320;48.860;2.380;2022-09-09T12:33:18;23.40;62.50
4209;DHT22;36320;48.860;2.380;2022-09-09T12:35:48;23.10;63.90
4209;DHT22;36320;48.860;2.380;2022-09-09T12:38:39;22.80;65.90
4209;DHT22;36320;48.860;2.380;2022-09-09T12:41:05;22.90;68.20
4209;DHT22;36320;48.860;2.380;2022-09-09T12:43:31;23.10;68.20
4209;DHT22;36320;48.860;2.380;2022-09-09T12:46:03;23.10;68.50
4209;DHT22;36320;48.860;2.380;2022-09-09T12:48:44;22.90;69.00
4209;DHT22;36320;48.860;2.380;2022-09-09T12:51:24;22.50;69.60
4209;DHT22;36320;48.860;2.380;2022-09-09T12:53:51;22.50;70.40
4209;DHT22;36320;48.860;2.380;2022-09-09T12:56:28;22.60;70.50
4209;DHT22;36320;48.860;2.380;2022-09-09T12:58:57;22.90;71.40
4209;DHT22;36320;48.860;2.380;2022-09-09T13:01:31;22.90;70.40
4209;DHT22;36320;48.860;2.380;2022-09-09T13:03:58;22.80;70.30
4209;DHT22;36320;48.860;2.380;2022-09-09T13:06:29;22.80;70.60
4209;DHT22;36320;48.860;2.380;2022-09-09T13:08:57;22.80;70.80
4209;DHT22;36320;48.860;2.380;2022-09-09T13:11:41;22.60;70.70
4209;DHT22;36320;48.860;2.380;2022-09-09T13:14:17;22.50;71.30
4209;DHT22;36320;48.860;2.380;2022-09-09T13:16:58;22.20;71.20
4209;DHT22;36320;48.860;2.380;2022-09-09T13:19:25;21.80;71.80
4209;DHT22;36320;48.860;2.380;2022-09-09T13:21:53;21.80;72.60
4209;DHT22;36320;48.860;2.380;2022-09-09T13:24:38;21.60;72.60
4209;DHT22;36320;48.860;2.380;2022-09-09T13:27:22;21.80;73.90
4209;DHT22;36320;48.860;2.380;2022-09-09T13:29:53;21.60;73.80
4209;DHT22;36320;48.860;2.380;2022-09-09T13:32:20;21.60;74.40
4209;DHT22;36320;48.860;2.380;2022-09-09T13:34:56;21.80;75.10
4209;DHT22;36320;48.860;2.380;2022-09-09T13:39:57;22.10;74.60
4209;DHT22;36320;48.860;2.380;2022-09-09T13:42:26;22.10;74.60
4209;DHT22;36320;48.860;2.380;2022-09-09T13:44:53;22.00;74.40
4209;DHT22;36320;48.860;2.380;2022-09-09T13:47:26;21.90;73.80
4209;DHT22;36320;48.860;2.380;2022-09-09T13:49:53;21.80;73.90
4209;DHT22;36320;48.860;2.380;2022-09-09T13:52:19;21.90;73.90
4209;DHT22;36320;48.860;2.380;2022-09-09T13:54:49;21.90;73.90
4209;DHT22;36320;48.860;2.380;2022-09-09T13:57:23;22.10;73.90
4209;DHT22;36320;48.860;2.380;2022-09-09T13:59:51;22.60;73.40
4209;DHT22;36320;48.860;2.380;2022-09-09T14:02:17;23.10;72.20
4209;DHT22;36320;48.860;2.380;2022-09-09T14:04:44;23.30;71.60
4209;DHT22;36320;48.860;2.380;2022-09-09T14:07:19;23.10;71.90
4209;DHT22;36320;48.860;2.380;2022-09-09T14:09:45;23.00;72.30
4209;DHT22;36320;48.860;2.380;2022-09-09T14:12:15;22.90;72.50
4209;DHT22;36320;48.860;2.380;2022-09-09T14:14:42;22.70;72.60
4209;DHT22;36320;48.860;2.380;2022-09-09T14:17:08;22.30;72.50
4209;DHT22;36320;48.860;2.380;2022-09-09T14:19:34;22.60;72.90
4209;DHT22;36320;48.860;2.380;2022-09-09T14:22:01;22.70;72.80
4209;DHT22;36320;48.860;2.380;2022-09-09T14:24:28;23.10;72.70
4209;DHT22;36320;48.860;2.380;2022-09-09T14:26:54;23.60;71.80
4209;DHT22;36320;48.860;2.380;2022-09-09T14:29:20;23.90;71.50
4209;DHT22;36320;48.860;2.380;2022-09-09T14:31:46;23.90;71.20
4209;DHT22;36320;48.860;2.380;2022-09-09T14:34:12;23.60;71.50
4209;DHT22;36320;48.860;2.380;2022-09-09T14:36:40;23.50;71.80
4209;DHT22;36320;48.860;2.380;2022-09-09T14:39:06;23.60;72.00
4209;DHT22;36320;48.860;2.380;2022-09-09T14:41:31;23.80;72.20
4209;DHT22;36320;48.860;2.380;2022-09-09T14:43:57;23.70;72.10
4209;DHT22;36320;48.860;2.380;2022-09-09T14:46:23;23.80;72.10
4209;DHT22;36320;48.860;2.380;2022-09-09T14:48:49;23.90;72.00
4209;DHT22;36320;48.860;2.380;2022-09-09T14:51:20;24.10;71.80
4209;DHT22;36320;48.860;2.380;2022-09-09T14:53:47;24.30;71.50
4209;DHT22;36320;48.860;2.380;2022-09-09T14:56:19;24.50;70.10
4209;DHT22;36320;48.860;2.380;2022-09-09T14:58:46;24.60;69.40
4209;DHT22;36320;48.860;2.380;2022-09-09T15:01:18;24.10;68.60
4209;DHT22;36320;48.860;2.380;2022-09-09T15:03:52;23.60;69.30
4209;DHT22;36320;48.860;2.380;2022-09-09T15:06:19;23.50;69.90
4209;DHT22;36320;48.860;2.380;2022-09-09T15:08:46;23.50;69.90
4209;DHT22;36320;48.860;2.380;2022-09-09T15:11:13;23.30;69.90
4209;DHT22;36320;48.860;2.380;2022-09-09T15:13:42;23.50;69.80
4209;DHT22;36320;48.860;2.380;2022-09-09T15:16:16;24.00;69.70
4209;DHT22;36320;48.860;2.380;2022-09-09T15:18:43;24.10;68.90
4209;DHT22;36320;48.860;2.380;2022-09-09T15:21:15;23.80;68.20
4209;DHT22;36320;48.860;2.380;2022-09-09T15:23:42;24.10;68.20
4209;DHT22;36320;48.860;2.380;2022-09-09T15:26:14;24.10;67.80
4209;DHT22;36320;48.860;2.380;2022-09-09T15:28:41;24.10;68.10
4209;DHT22;36320;48.860;2.380;2022-09-09T15:31:20;24.20;67.70
4209;DHT22;36320;48.860;2.380;2022-09-09T15:33:54;24.10;67.10
4209;DHT22;36320;48.860;2.380;2022-09-09T15:36:39;24.10;67.10
4209;DHT22;36320;48.860;2.380;2022-09-09T15:39:09;23.90;67.10
4209;DHT22;36320;48.860;2.380;2022-09-09T15:41:39;23.70;67.30
4209;DHT22;36320;48.860;2.380;2022-09-09T15:44:05;23.50;68.00
4209;DHT22;36320;48.860;2.380;2022-09-09T15:46:42;23.40;67.80
4209;DHT22;36320;48.860;2.380;2022-09-09T15:49:17;23.30;68.30
4209;DHT22;36320;48.860;2.380;2022-09-09T15:51:51;23.10;68.70
4209;DHT22;36320;48.860;2.380;2022-09-09T15:54:18;23.10;69.30
4209;DHT22;36320;48.860;2.380;2022-09-09T15:56:52;22.90;69.40
4209;DHT22;36320;48.860;2.380;2022-09-09T15:59:20;23.00;69.70
4209;DHT22;36320;48.860;2.380;2022-09-09T16:01:46;23.10;69.40
4209;DHT22;36320;48.860;2.380;2022-09-09T16:04:12;23.30;69.40
4209;DHT22;36320;48.860;2.380;2022-09-09T16:06:37;23.50;69.00
4209;DHT22;36320;48.860;2.380;2022-09-09T16:09:07;23.50;68.90
4209;DHT22;36320;48.860;2.380;2022-09-09T16:11:36;23.40;69.00
4209;DHT22;36320;48.860;2.380;2022-09-09T16:14:07;23.20;69.60
4209;DHT22;36320;48.860;2.380;2022-09-09T16:16:42;23.10;69.80
4209;DHT22;36320;48.860;2.380;2022-09-09T16:19:10;23.10;70.10
4209;DHT22;36320;48.860;2.380;2022-09-09T16:21:44;23.10;70.30
4209;DHT22;36320;48.860;2.380;2022-09-09T16:24:18;23.30;70.60
4209;DHT22;36320;48.860;2.380;2022-09-09T16:26:49;22.70;70.80
4209;DHT22;36320;48.860;2.380;2022-09-09T16:29:17;22.50;71.20
4209;DHT22;36320;48.860;2.380;2022-09-09T16:31:50;22.50;71.90
4209;DHT22;36320;48.860;2.380;2022-09-09T16:34:17;22.50;72.10
4209;DHT22;36320;48.860;2.380;2022-09-09T16:36:44;23.10;72.10
4209;DHT22;36320;48.860;2.380;2022-09-09T16:39:13;23.60;71.10
4209;DHT22;36320;48.860;2.380;2022-09-09T16:41:40;23.90;70.60
4209;DHT22;36320;48.860;2.380;2022-09-09T16:44:09;23.70;70.40
4209;DHT22;36320;48.860;2.380;2022-09-09T16:46:37;23.10;70.80
4209;DHT22;36320;48.860;2.380;2022-09-09T16:49:12;22.90;71.50
4209;DHT22;36320;48.860;2.380;2022-09-09T16:51:48;22.60;72.00
4209;DHT22;36320;48.860;2.380;2022-09-09T16:54:18;22.50;72.40
4209;DHT22;36320;48.860;2.380;2022-09-09T16:56:46;22.40;72.50
4209;DHT22;36320;48.860;2.380;2022-09-09T16:59:15;22.50;72.90
4209;DHT22;36320;48.860;2.380;2022-09-09T17:01:42;22.50;72.30
4209;DHT22;36320;48.860;2.380;2022-09-09T17:04:32;22.60;72.10
4209;DHT22;36320;48.860;2.380;2022-09-09T17:06:57;22.60;71.80
4209;DHT22;36320;48.860;2.380;2022-09-09T17:09:26;22.70;71.80
4209;DHT22;36320;48.860;2.380;2022-09-09T17:11:54;22.60;71.30
4209;DHT22;36320;48.860;2.380;2022-09-09T17:14:22;22.80;71.90
4209;DHT22;36320;48.860;2.380;2022-09-09T17:16:49;22.70;71.80
4209;DHT22;36320;48.860;2.380;2022-09-09T17:19:15;22.60;70.80
4209;DHT22;36320;48.860;2.380;2022-09-09T17:21:42;22.50;70.90
4209;DHT22;36320;48.860;2.380;2022-09-09T17:24:08;22.50;71.10
4209;DHT22;36320;48.860;2.380;2022-09-09T17:26:34;22.20;71.40
4209;DHT22;36320;48.860;2.380;2022-09-09T17:29:00;22.10;71.70
4209;DHT22;36320;48.860;2.380;2022-09-09T17:31:27;22.10;71.90
4209;DHT22;36320;48.860;2.380;2022-09-09T17:33:53;22.10;71.80
4209;DHT22;36320;48.860;2.380;2022-09-09T17:36:28;22.30;72.30
4209;DHT22;36320;48.860;2.380;2022-09-09T17:38:54;21.90;71.80
4209;DHT22;36320;48.860;2.380;2022-09-09T17:43:46;21.90;72.10
4209;DHT22;36320;48.860;2.380;2022-09-09T17:46:19;21.80;72.40
4209;DHT22;36320;48.860;2.380;2022-09-09T17:48:47;21.60;73.40
4209;DHT22;36320;48.860;2.380;2022-09-09T17:51:16;21.40;74.00
4209;DHT22;36320;48.860;2.380;2022-09-09T17:53:46;21.10;75.20
4209;DHT22;36320;48.860;2.380;2022-09-09T17:56:18;21.00;76.10
4209;DHT22;36320;48.860;2.380;2022-09-09T17:58:46;21.00;76.40
4209;DHT22;36320;48.860;2.380;2022-09-09T18:01:14;21.00;77.00
4209;DHT22;36320;48.860;2.380;2022-09-09T18:03:41;21.00;77.50
4209;DHT22;36320;48.860;2.380;2022-09-09T18:06:14;21.10;77.50
4209;DHT22;36320;48.860;2.380;2022-09-09T18:08:41;21.20;77.50
4209;DHT22;36320;48.860;2.380;2022-09-09T18:11:08;21.10;77.60
4209;DHT22;36320;48.860;2.380;2022-09-09T18:13:34;21.00;77.60
4209;DHT22;36320;48.860;2.380;2022-09-09T18:16:01;21.00;77.60
4209;DHT22;36320;48.860;2.380;2022-09-09T18:18:32;21.00;77.60
4209;DHT22;36320;48.860;2.380;2022-09-09T18:21:04;21.10;77.70
4209;DHT22;36320;48.860;2.380;2022-09-09T18:23:37;21.20;77.80
4209;DHT22;36320;48.860;2.380;2022-09-09T18:26:12;21.20;77.80
4209;DHT22;36320;48.860;2.380;2022-09-09T18:28:40;21.00;78.10